sensor_id;sensor_type;location;lat;lon;timestamp;P1;durP1;ratioP1;P2;durP2;ratioP2
19131;SDS011;9698;51.976;7.570;2023-05-28T00:02:04;7.37;;;4.33;;
19131;SDS011;9698;51.976;7.570;2023-05-28T00:04:32;7.67;;;4.37;;
19131;SDS011;9698;51.976;7.570;2023-05-28T00:07:00;9.97;;;5.13;;
19131;SDS011;9698;51.976;7.570;2023-05-28T00:09:28;7.10;;;4.23;;
19131;SDS011;9698;51.976;7.570;2023-05-28T00:11:56;10.07;;;4.63;;
19131;SDS011;9698;51.976;7.570;2023-05-28T00:14:24;8.03;;;4.43;;
19131;SDS011;9698;51.976;7.570;2023-05-28T00:16:52;8.40;;;4.77;;
19131;SDS011;9698;51.976;7.570;2023-05-28T00:19:20;8.10;;;4.53;;
19131;SDS011;9698;51.976;7.570;2023-05-28T00:21:48;7.93;;;4.83;;
19131;SDS011;9698;51.976;7.570;2023-05-28T00:24:16;6.73;;;4.40;;
19131;SDS011;9698;51.976;7.570;2023-05-28T00:26:44;7.27;;;4.27;;
19131;SDS011;9698;51.976;7.570;2023-05-28T00:29:12;6.00;;;4.23;;
19131;SDS011;9698;51.976;7.570;2023-05-28T00:31:40;7.37;;;4.20;;
19131;SDS011;9698;51.976;7.570;2023-05-28T00:34:08;8.10;;;5.20;;
19131;SDS011;9698;51.976;7.570;2023-05-28T00:36:36;9.80;;;4.80;;
19131;SDS011;9698;51.976;7.570;2023-05-28T00:39:04;10.17;;;4.70;;
19131;SDS011;9698;51.976;7.570;2023-05-28T00:41:32;6.37;;;4.33;;
19131;SDS011;9698;51.976;7.570;2023-05-28T00:44:01;5.57;;;4.60;;
19131;SDS011;9698;51.976;7.570;2023-05-28T00:46:29;7.80;;;4.70;;
19131;SDS011;9698;51.976;7.570;2023-05-28T00:48:57;7.20;;;5.00;;
19131;SDS011;9698;51.976;7.570;2023-05-28T00:51:25;9.70;;;4.93;;
19131;SDS011;9698;51.976;7.570;2023-05-28T00:53:54;9.13;;;5.13;;
19131;SDS011;9698;51.976;7.570;2023-05-28T00:56:22;5.77;;;3.87;;
19131;SDS011;9698;51.976;7.570;2023-05-28T00:58:50;9.03;;;5.10;;
19131;SDS011;9698;51.976;7.570;2023-05-28T01:01:19;6.63;;;5.03;;
19131;SDS011;9698;51.976;7.570;2023-05-28T01:03:48;11.30;;;5.07;;
19131;SDS011;9698;51.976;7.570;2023-05-28T01:06:18;7.00;;;4.40;;
19131;SDS011;9698;51.976;7.570;2023-05-28T01:08:48;7.93;;;4.60;;
19131;SDS011;9698;51.976;7.570;2023-05-28T01:11:17;8.00;;;4.40;;
19131;SDS011;9698;51.976;7.570;2023-05-28T01:13:47;7.57;;;4.07;;
19131;SDS011;9698;51.976;7.570;2023-05-28T01:16:15;8.60;;;4.43;;
19131;SDS011;9698;51.976;7.570;2023-05-28T01:19:02;9.37;;;5.10;;
19131;SDS011;9698;51.976;7.570;2023-05-28T01:21:34;11.63;;;5.00;;
19131;SDS011;9698;51.976;7.570;2023-05-28T01:24:24;7.97;;;4.77;;
19131;SDS011;9698;51.976;7.570;2023-05-28T01:29:38;8.50;;;4.93;;
19131;SDS011;9698;51.976;7.570;2023-05-28T01:32:07;8.83;;;4.83;;
19131;SDS011;9698;51.976;7.570;2023-05-28T01:34:34;6.90;;;4.80;;
19131;SDS011;9698;51.976;7.570;2023-05-28T01:37:21;7.87;;;5.00;;
19131;SDS011;9698;51.976;7.570;2023-05-28T01:39:51;6.97;;;4.90;;
19131;SDS011;9698;51.976;7.570;2023-05-28T01:42:20;7.87;;;4.70;;
19131;SDS011;9698;51.976;7.570;2023-05-28T01:44:48;7.73;;;4.87;;
19131;SDS011;9698;51.976;7.570;2023-05-28T01:47:18;9.37;;;4.87;;
19131;SDS011;9698;51.976;7.570;2023-05-28T01:49:46;9.97;;;4.53;;
19131;SDS011;9698;51.976;7.570;2023-05-28T01:52:14;8.53;;;4.93;;
19131;SDS011;9698;51.976;7.570;2023-05-28T01:54:42;7.70;;;4.97;;
19131;SDS011;9698;51.976;7.570;2023-05-28T01:57:10;9.17;;;5.20;;
19131;SDS011;9698;51.976;7.570;2023-05-28T01:59:38;9.93;;;4.87;;
19131;SDS011;9698;51.976;7.570;2023-05-28T02:02:06;8.57;;;5.20;;
19131;SDS011;9698;51.976;7.570;2023-05-28T02:04:34;9.97;;;4.80;;
19131;SDS011;9698;51.976;7.570;2023-05-28T02:07:02;8.37;;;5.40;;
19131;SDS011;9698;51.976;7.570;2023-05-28T02:09:31;8.93;;;4.87;;
19131;SDS011;9698;51.976;7.570;2023-05-28T02:12:01;9.70;;;5.00;;
19131;SDS011;9698;51.976;7.570;2023-05-28T02:14:30;7.00;;;4.60;;
19131;SDS011;9698;51.976;7.570;2023-05-28T02:16:59;8.93;;;4.87;;
19131;SDS011;9698;51.976;7.570;2023-05-28T02:19:27;7.87;;;4.50;;
19131;SDS011;9698;51.976;7.570;2023-05-28T02:21:54;8.60;;;4.93;;
19131;SDS011;9698;51.976;7.570;2023-05-28T02:24:41;9.33;;;4.77;;
19131;SDS011;9698;51.976;7.570;2023-05-28T02:27:09;8.67;;;5.00;;
19131;SDS011;9698;51.976;7.570;2023-05-28T02:29:38;7.80;;;4.83;;
19131;SDS011;9698;51.976;7.570;2023-05-28T02:32:06;8.43;;;5.47;;
19131;SDS011;9698;51.976;7.570;2023-05-28T02:34:34;8.33;;;5.00;;
19131;SDS011;9698;51.976;7.570;2023-05-28T02:37:04;9.07;;;5.07;;
19131;SDS011;9698;51.976;7.570;2023-05-28T02:39:32;10.33;;;5.93;;
19131;SDS011;9698;51.976;7.570;2023-05-28T02:42:00;8.20;;;5.47;;
19131;SDS011;9698;51.976;7.570;2023-05-28T02:44:28;8.73;;;5.53;;
19131;SDS011;9698;51.976;7.570;2023-05-28T02:46:56;11.57;;;5.77;;
19131;SDS011;9698;51.976;7.570;2023-05-28T02:49:23;9.07;;;4.70;;
19131;SDS011;9698;51.976;7.570;2023-05-28T02:51:51;6.87;;;4.90;;
19131;SDS011;9698;51.976;7.570;2023-05-28T02:54:19;11.57;;;5.53;;
19131;SDS011;9698;51.976;7.570;2023-05-28T02:56:47;9.80;;;5.20;;
19131;SDS011;9698;51.976;7.570;2023-05-28T02:59:15;7.27;;;5.37;;
19131;SDS011;9698;51.976;7.570;2023-05-28T03:01:42;9.40;;;5.37;;
19131;SDS011;9698;51.976;7.570;2023-05-28T03:04:10;7.37;;;5.27;;
19131;SDS011;9698;51.976;7.570;2023-05-28T03:06:39;10.17;;;5.50;;
19131;SDS011;9698;51.976;7.570;2023-05-28T03:09:07;7.57;;;5.50;;
19131;SDS011;9698;51.976;7.570;2023-05-28T03:11:35;8.00;;;5.40;;
19131;SDS011;9698;51.976;7.570;2023-05-28T03:14:03;9.37;;;5.37;;
19131;SDS011;9698;51.976;7.570;2023-05-28T03:16:31;6.90;;;4.83;;
19131;SDS011;9698;51.976;7.570;2023-05-28T03:18:59;10.83;;;5.87;;
19131;SDS011;9698;51.976;7.570;2023-05-28T03:21:26;9.63;;;5.63;;
19131;SDS011;9698;51.976;7.570;2023-05-28T03:23:54;6.73;;;5.00;;
19131;SDS011;9698;51.976;7.570;2023-05-28T03:26:22;8.60;;;5.27;;
19131;SDS011;9698;51.976;7.570;2023-05-28T03:28:50;7.37;;;5.33;;
19131;SDS011;9698;51.976;7.570;2023-05-28T03:31:18;6.63;;;4.80;;
19131;SDS011;9698;51.976;7.570;2023-05-28T03:33:47;10.50;;;5.77;;
19131;SDS011;9698;51.976;7.570;2023-05-28T03:36:14;7.23;;;4.97;;
19131;SDS011;9698;51.976;7.570;2023-05-28T03:38:43;6.43;;;5.30;;
19131;SDS011;9698;51.976;7.570;2023-05-28T03:41:11;8.37;;;5.10;;
19131;SDS011;9698;51.976;7.570;2023-05-28T03:43:39;9.60;;;5.37;;
19131;SDS011;9698;51.976;7.570;2023-05-28T03:46:07;6.30;;;4.90;;
19131;SDS011;9698;51.976;7.570;2023-05-28T03:48:35;9.77;;;4.73;;
19131;SDS011;9698;51.976;7.570;2023-05-28T03:51:03;7.60;;;5.33;;
19131;SDS011;9698;51.976;7.570;2023-05-28T03:53:31;7.60;;;5.10;;
19131;SDS011;9698;51.976;7.570;2023-05-28T03:55:59;8.53;;;5.30;;
19131;SDS011;9698;51.976;7.570;2023-05-28T03:58:27;10.00;;;5.53;;
19131;SDS011;9698;51.976;7.570;2023-05-28T04:00:55;11.17;;;6.07;;
19131;SDS011;9698;51.976;7.570;2023-05-28T04:03:22;10.80;;;5.40;;
19131;SDS011;9698;51.976;7.570;2023-05-28T04:08:37;8.67;;;5.23;;
19131;SDS011;9698;51.976;7.570;2023-05-28T04:11:04;9.50;;;5.93;;
19131;SDS011;9698;51.976;7.570;2023-05-28T04:13:32;8.73;;;5.37;;
19131;SDS011;9698;51.976;7.570;2023-05-28T04:16:00;10.07;;;5.70;;
19131;SDS011;9698;51.976;7.570;2023-05-28T04:18:28;9.07;;;5.17;;
19131;SDS011;9698;51.976;7.570;2023-05-28T04:20:56;8.17;;;5.90;;
19131;SDS011;9698;51.976;7.570;2023-05-28T04:23:24;9.00;;;5.17;;
19131;SDS011;9698;51.976;7.570;2023-05-28T04:25:52;9.07;;;5.50;;
19131;SDS011;9698;51.976;7.570;2023-05-28T04:28:21;10.23;;;6.13;;
19131;SDS011;9698;51.976;7.570;2023-05-28T04:30:50;7.90;;;5.30;;
19131;SDS011;9698;51.976;7.570;2023-05-28T04:33:18;8.33;;;5.23;;
19131;SDS011;9698;51.976;7.570;2023-05-28T04:35:47;7.37;;;5.33;;
19131;SDS011;9698;51.976;7.570;2023-05-28T04:38:14;7.43;;;5.40;;
19131;SDS011;9698;51.976;7.570;2023-05-28T04:40:43;9.37;;;5.33;;
19131;SDS011;9698;51.976;7.570;2023-05-28T04:43:11;10.50;;;5.77;;
19131;SDS011;9698;51.976;7.570;2023-05-28T04:45:39;9.13;;;5.00;;
19131;SDS011;9698;51.976;7.570;2023-05-28T04:48:08;9.30;;;5.30;;
19131;SDS011;9698;51.976;7.570;2023-05-28T04:53:26;8.87;;;5.30;;
19131;SDS011;9698;51.976;7.570;2023-05-28T04:55:53;8.27;;;5.07;;
19131;SDS011;9698;51.976;7.570;2023-05-28T04:58:22;8.97;;;5.30;;
19131;SDS011;9698;51.976;7.570;2023-05-28T05:00:50;9.53;;;5.30;;
19131;SDS011;9698;51.976;7.570;2023-05-28T05:03:18;9.87;;;4.90;;
19131;SDS011;9698;51.976;7.570;2023-05-28T05:05:46;9.57;;;5.10;;
19131;SDS011;9698;51.976;7.570;2023-05-28T05:08:14;10.33;;;4.93;;
19131;SDS011;9698;51.976;7.570;2023-05-28T05:10:43;8.33;;;5.13;;
19131;SDS011;9698;51.976;7.570;2023-05-28T05:13:10;8.00;;;4.77;;
19131;SDS011;9698;51.976;7.570;2023-05-28T05:15:38;7.67;;;5.37;;
19131;SDS011;9698;51.976;7.570;2023-05-28T05:18:06;8.40;;;5.07;;
19131;SDS011;9698;51.976;7.570;2023-05-28T05:20:34;12.00;;;5.40;;
19131;SDS011;9698;51.976;7.570;2023-05-28T05:23:02;7.53;;;5.00;;
19131;SDS011;9698;51.976;7.570;2023-05-28T05:25:30;7.30;;;4.60;;
19131;SDS011;9698;51.976;7.570;2023-05-28T05:27:57;11.23;;;5.57;;
19131;SDS011;9698;51.976;7.570;2023-05-28T05:30:26;7.77;;;5.20;;
19131;SDS011;9698;51.976;7.570;2023-05-28T05:32:53;7.90;;;5.03;;
19131;SDS011;9698;51.976;7.570;2023-05-28T05:35:21;11.93;;;5.57;;
19131;SDS011;9698;51.976;7.570;2023-05-28T05:37:49;6.57;;;4.60;;
19131;SDS011;9698;51.976;7.570;2023-05-28T05:40:18;11.33;;;5.10;;
19131;SDS011;9698;51.976;7.570;2023-05-28T05:42:46;10.13;;;5.00;;
19131;SDS011;9698;51.976;7.570;2023-05-28T05:45:14;7.83;;;4.63;;
19131;SDS011;9698;51.976;7.570;2023-05-28T05:47:42;8.80;;;5.13;;
19131;SDS011;9698;51.976;7.570;2023-05-28T05:50:10;6.37;;;5.13;;
19131;SDS011;9698;51.976;7.570;2023-05-28T05:52:38;9.67;;;4.90;;
19131;SDS011;9698;51.976;7.570;2023-05-28T05:55:07;8.93;;;5.10;;
19131;SDS011;9698;51.976;7.570;2023-05-28T05:57:35;9.93;;;4.67;;
19131;SDS011;9698;51.976;7.570;2023-05-28T06:00:04;8.83;;;4.87;;
19131;SDS011;9698;51.976;7.570;2023-05-28T06:02:34;9.57;;;5.03;;
19131;SDS011;9698;51.976;7.570;2023-05-28T06:05:04;8.00;;;5.13;;
19131;SDS011;9698;51.976;7.570;2023-05-28T06:07:33;9.73;;;5.30;;
19131;SDS011;9698;51.976;7.570;2023-05-28T06:10:01;8.57;;;4.73;;
19131;SDS011;9698;51.976;7.570;2023-05-28T06:12:29;7.43;;;4.50;;
19131;SDS011;9698;51.976;7.570;2023-05-28T06:14:57;8.13;;;4.87;;
19131;SDS011;9698;51.976;7.570;2023-05-28T06:17:26;9.07;;;5.47;;
19131;SDS011;9698;51.976;7.570;2023-05-28T06:19:54;11.00;;;5.23;;
19131;SDS011;9698;51.976;7.570;2023-05-28T06:22:22;8.43;;;4.80;;
19131;SDS011;9698;51.976;7.570;2023-05-28T06:24:50;10.70;;;5.47;;
19131;SDS011;9698;51.976;7.570;2023-05-28T06:27:18;8.40;;;4.47;;
19131;SDS011;9698;51.976;7.570;2023-05-28T06:29:47;8.27;;;4.20;;
19131;SDS011;9698;51.976;7.570;2023-05-28T06:32:15;6.07;;;4.50;;
19131;SDS011;9698;51.976;7.570;2023-05-28T06:34:42;5.37;;;4.40;;
19131;SDS011;9698;51.976;7.570;2023-05-28T06:37:11;7.10;;;4.70;;
19131;SDS011;9698;51.976;7.570;2023-05-28T06:39:38;9.10;;;4.90;;
19131;SDS011;9698;51.976;7.570;2023-05-28T06:42:06;6.53;;;4.33;;
19131;SDS011;9698;51.976;7.570;2023-05-28T06:44:34;8.47;;;4.50;;
19131;SDS011;9698;51.976;7.570;2023-05-28T06:47:02;7.90;;;5.07;;
19131;SDS011;9698;51.976;7.570;2023-05-28T06:49:31;5.90;;;4.50;;
19131;SDS011;9698;51.976;7.570;2023-05-28T06:51:58;7.23;;;4.47;;
19131;SDS011;9698;51.976;7.570;2023-05-28T06:54:26;9.33;;;4.87;;
19131;SDS011;9698;51.976;7.570;2023-05-28T06:56:54;7.90;;;4.53;;
19131;SDS011;9698;51.976;7.570;2023-05-28T06:59:22;7.83;;;4.37;;
19131;SDS011;9698;51.976;7.570;2023-05-28T07:01:49;7.20;;;4.60;;
19131;SDS011;9698;51.976;7.570;2023-05-28T07:04:18;6.67;;;4.47;;
19131;SDS011;9698;51.976;7.570;2023-05-28T07:06:46;7.47;;;4.87;;
19131;SDS011;9698;51.976;7.570;2023-05-28T07:09:14;8.87;;;4.37;;
19131;SDS011;9698;51.976;7.570;2023-05-28T07:11:42;7.63;;;4.13;;
19131;SDS011;9698;51.976;7.570;2023-05-28T07:14:10;8.20;;;4.40;;
19131;SDS011;9698;51.976;7.570;2023-05-28T07:16:37;7.97;;;4.17;;
19131;SDS011;9698;51.976;7.570;2023-05-28T07:19:06;10.30;;;4.67;;
19131;SDS011;9698;51.976;7.570;2023-05-28T07:21:34;7.17;;;4.27;;
19131;SDS011;9698;51.976;7.570;2023-05-28T07:24:04;7.57;;;4.50;;
19131;SDS011;9698;51.976;7.570;2023-05-28T07:26:32;11.10;;;4.70;;
19131;SDS011;9698;51.976;7.570;2023-05-28T07:29:00;8.70;;;4.93;;
19131;SDS011;9698;51.976;7.570;2023-05-28T07:31:28;5.80;;;3.80;;
19131;SDS011;9698;51.976;7.570;2023-05-28T07:33:57;6.87;;;4.27;;
19131;SDS011;9698;51.976;7.570;2023-05-28T07:36:25;7.70;;;4.77;;
19131;SDS011;9698;51.976;7.570;2023-05-28T07:38:53;10.13;;;4.97;;
19131;SDS011;9698;51.976;7.570;2023-05-28T07:41:21;7.33;;;4.70;;
19131;SDS011;9698;51.976;7.570;2023-05-28T07:43:49;7.83;;;4.70;;
19131;SDS011;9698;51.976;7.570;2023-05-28T07:46:17;7.23;;;3.97;;
19131;SDS011;9698;51.976;7.570;2023-05-28T07:48:45;6.90;;;4.27;;
19131;SDS011;9698;51.976;7.570;2023-05-28T07:51:12;7.77;;;4.57;;
19131;SDS011;9698;51.976;7.570;2023-05-28T07:53:40;4.77;;;3.23;;
19131;SDS011;9698;51.976;7.570;2023-05-28T07:56:09;8.27;;;3.90;;
19131;SDS011;9698;51.976;7.570;2023-05-28T07:58:38;6.53;;;3.33;;
19131;SDS011;9698;51.976;7.570;2023-05-28T08:01:08;6.63;;;3.60;;
19131;SDS011;9698;51.976;7.570;2023-05-28T08:03:36;7.53;;;3.50;;
19131;SDS011;9698;51.976;7.570;2023-05-28T08:06:05;5.17;;;3.80;;
19131;SDS011;9698;51.976;7.570;2023-05-28T08:08:34;6.67;;;3.80;;
19131;SDS011;9698;51.976;7.570;2023-05-28T08:11:02;6.77;;;3.43;;
19131;SDS011;9698;51.976;7.570;2023-05-28T08:13:30;5.83;;;3.30;;
19131;SDS011;9698;51.976;7.570;2023-05-28T08:15:58;7.53;;;3.23;;
19131;SDS011;9698;51.976;7.570;2023-05-28T08:18:30;6.57;;;3.83;;
19131;SDS011;9698;51.976;7.570;2023-05-28T08:20:58;6.37;;;3.53;;
19131;SDS011;9698;51.976;7.570;2023-05-28T08:23:26;6.47;;;3.47;;
19131;SDS011;9698;51.976;7.570;2023-05-28T08:25:54;7.90;;;4.13;;
19131;SDS011;9698;51.976;7.570;2023-05-28T08:28:23;6.70;;;3.13;;
19131;SDS011;9698;51.976;7.570;2023-05-28T08:33:40;6.47;;;3.57;;
19131;SDS011;9698;51.976;7.570;2023-05-28T08:36:09;8.93;;;3.53;;
19131;SDS011;9698;51.976;7.570;2023-05-28T08:38:37;6.30;;;3.60;;
19131;SDS011;9698;51.976;7.570;2023-05-28T08:41:05;6.57;;;3.77;;
19131;SDS011;9698;51.976;7.570;2023-05-28T08:43:34;5.33;;;3.50;;
19131;SDS011;9698;51.976;7.570;2023-05-28T08:46:02;7.97;;;3.80;;
19131;SDS011;9698;51.976;7.570;2023-05-28T08:48:33;5.77;;;2.97;;
19131;SDS011;9698;51.976;7.570;2023-05-28T08:51:19;9.13;;;3.60;;
19131;SDS011;9698;51.976;7.570;2023-05-28T08:53:51;7.73;;;3.43;;
19131;SDS011;9698;51.976;7.570;2023-05-28T08:56:22;6.50;;;3.30;;
19131;SDS011;9698;51.976;7.570;2023-05-28T08:58:50;6.17;;;3.53;;
19131;SDS011;9698;51.976;7.570;2023-05-28T09:01:19;5.90;;;3.50;;
19131;SDS011;9698;51.976;7.570;2023-05-28T09:03:47;8.37;;;3.60;;
19131;SDS011;9698;51.976;7.570;2023-05-28T09:06:15;7.03;;;3.63;;
19131;SDS011;9698;51.976;7.570;2023-05-28T09:08:44;7.43;;;3.47;;
19131;SDS011;9698;51.976;7.570;2023-05-28T09:11:13;5.33;;;3.60;;
19131;SDS011;9698;51.976;7.570;2023-05-28T09:13:41;7.70;;;3.53;;
19131;SDS011;9698;51.976;7.570;2023-05-28T09:16:10;8.40;;;4.37;;
19131;SDS011;9698;51.976;7.570;2023-05-28T09:18:41;7.20;;;3.50;;
19131;SDS011;9698;51.976;7.570;2023-05-28T09:21:09;5.80;;;3.60;;
19131;SDS011;9698;51.976;7.570;2023-05-28T09:23:38;9.73;;;4.13;;
19131;SDS011;9698;51.976;7.570;2023-05-28T09:26:08;6.23;;;3.83;;
19131;SDS011;9698;51.976;7.570;2023-05-28T09:28:39;6.30;;;4.10;;
19131;SDS011;9698;51.976;7.570;2023-05-28T09:31:10;8.40;;;3.90;;
19131;SDS011;9698;51.976;7.570;2023-05-28T09:33:41;6.50;;;3.90;;
19131;SDS011;9698;51.976;7.570;2023-05-28T09:36:11;9.63;;;3.83;;
19131;SDS011;9698;51.976;7.570;2023-05-28T09:38:41;5.33;;;3.27;;
19131;SDS011;9698;51.976;7.570;2023-05-28T09:41:19;6.80;;;3.63;;
19131;SDS011;9698;51.976;7.570;2023-05-28T09:43:55;6.80;;;3.57;;
19131;SDS011;9698;51.976;7.570;2023-05-28T09:46:27;6.03;;;3.67;;
19131;SDS011;9698;51.976;7.570;2023-05-28T09:48:56;5.93;;;3.40;;
19131;SDS011;9698;51.976;7.570;2023-05-28T09:51:24;8.77;;;3.57;;
19131;SDS011;9698;51.976;7.570;2023-05-28T09:53:56;8.77;;;4.03;;
19131;SDS011;9698;51.976;7.570;2023-05-28T09:56:26;5.50;;;3.47;;
19131;SDS011;9698;51.976;7.570;2023-05-28T09:58:56;7.47;;;3.90;;
19131;SDS011;9698;51.976;7.570;2023-05-28T10:01:29;9.47;;;3.77;;
19131;SDS011;9698;51.976;7.570;2023-05-28T10:04:01;6.50;;;3.23;;
19131;SDS011;9698;51.976;7.570;2023-05-28T10:06:35;6.67;;;3.63;;
19131;SDS011;9698;51.976;7.570;2023-05-28T10:09:07;5.93;;;3.90;;
19131;SDS011;9698;51.976;7.570;2023-05-28T10:11:57;7.00;;;3.67;;
19131;SDS011;9698;51.976;7.570;2023-05-28T10:14:32;6.60;;;3.70;;
19131;SDS011;9698;51.976;7.570;2023-05-28T10:17:00;7.07;;;3.60;;
19131;SDS011;9698;51.976;7.570;2023-05-28T10:19:28;10.50;;;3.70;;
19131;SDS011;9698;51.976;7.570;2023-05-28T10:22:17;5.30;;;3.73;;
19131;SDS011;9698;51.976;7.570;2023-05-28T10:24:46;6.83;;;3.77;;
19131;SDS011;9698;51.976;7.570;2023-05-28T10:27:15;7.00;;;3.50;;
19131;SDS011;9698;51.976;7.570;2023-05-28T10:29:43;6.97;;;3.67;;
19131;SDS011;9698;51.976;7.570;2023-05-28T10:32:13;6.87;;;3.70;;
19131;SDS011;9698;51.976;7.570;2023-05-28T10:34:43;6.33;;;3.90;;
19131;SDS011;9698;51.976;7.570;2023-05-28T10:37:10;10.87;;;4.43;;
19131;SDS011;9698;51.976;7.570;2023-05-28T10:39:40;5.73;;;3.40;;
19131;SDS011;9698;51.976;7.570;2023-05-28T10:42:09;7.53;;;3.90;;
19131;SDS011;9698;51.976;7.570;2023-05-28T10:44:51;5.03;;;3.10;;
19131;SDS011;9698;51.976;7.570;2023-05-28T10:47:31;5.70;;;3.67;;
19131;SDS011;9698;51.976;7.570;2023-05-28T10:50:00;7.00;;;3.90;;
19131;SDS011;9698;51.976;7.570;2023-05-28T10:55:49;8.90;;;4.07;;
19131;SDS011;9698;51.976;7.570;2023-05-28T10:58:25;7.30;;;3.77;;
19131;SDS011;9698;51.976;7.570;2023-05-28T11:00:57;6.23;;;3.63;;
19131;SDS011;9698;51.976;7.570;2023-05-28T11:03:52;6.70;;;3.73;;
19131;SDS011;9698;51.976;7.570;2023-05-28T11:06:21;6.37;;;3.70;;
19131;SDS011;9698;51.976;7.570;2023-05-28T11:08:52;8.27;;;3.33;;
19131;SDS011;9698;51.976;7.570;2023-05-28T11:11:23;8.77;;;4.20;;
19131;SDS011;9698;51.976;7.570;2023-05-28T11:13:53;7.30;;;3.90;;
19131;SDS011;9698;51.976;7.570;2023-05-28T11:16:22;9.13;;;3.93;;
19131;SDS011;9698;51.976;7.570;2023-05-28T11:19:03;7.10;;;3.83;;
19131;SDS011;9698;51.976;7.570;2023-05-28T11:21:32;6.87;;;3.70;;
19131;SDS011;9698;51.976;7.570;2023-05-28T11:24:01;6.77;;;4.20;;
19131;SDS011;9698;51.976;7.570;2023-05-28T11:26:30;5.63;;;3.50;;
19131;SDS011;9698;51.976;7.570;2023-05-28T11:29:18;6.67;;;4.20;;
19131;SDS011;9698;51.976;7.570;2023-05-28T11:31:46;6.53;;;3.40;;
19131;SDS011;9698;51.976;7.570;2023-05-28T11:34:18;7.53;;;4.00;;
19131;SDS011;9698;51.976;7.570;2023-05-28T11:36:46;7.80;;;4.10;;
19131;SDS011;9698;51.976;7.570;2023-05-28T11:39:14;5.50;;;4.13;;
19131;SDS011;9698;51.976;7.570;2023-05-28T11:41:42;8.70;;;4.37;;
19131;SDS011;9698;51.976;7.570;2023-05-28T11:44:20;7.20;;;3.73;;
19131;SDS011;9698;51.976;7.570;2023-05-28T11:46:49;8.13;;;4.00;;
19131;SDS011;9698;51.976;7.570;2023-05-28T11:49:20;8.07;;;3.90;;
19131;SDS011;9698;51.976;7.570;2023-05-28T11:51:50;9.03;;;4.10;;
19131;SDS011;9698;51.976;7.570;2023-05-28T11:54:18;5.60;;;4.10;;
19131;SDS011;9698;51.976;7.570;2023-05-28T11:56:48;9.80;;;3.87;;
19131;SDS011;9698;51.976;7.570;2023-05-28T11:59:16;6.53;;;4.00;;
19131;SDS011;9698;51.976;7.570;2023-05-28T12:01:45;9.10;;;4.03;;
19131;SDS011;9698;51.976;7.570;2023-05-28T12:04:13;9.93;;;4.60;;
19131;SDS011;9698;51.976;7.570;2023-05-28T12:06:51;6.53;;;3.97;;
19131;SDS011;9698;51.976;7.570;2023-05-28T12:09:19;8.60;;;4.07;;
19131;SDS011;9698;51.976;7.570;2023-05-28T12:12:01;7.87;;;3.90;;
19131;SDS011;9698;51.976;7.570;2023-05-28T12:14:30;8.10;;;3.83;;
19131;SDS011;9698;51.976;7.570;2023-05-28T12:17:04;7.17;;;3.50;;
19131;SDS011;9698;51.976;7.570;2023-05-28T12:19:33;8.47;;;3.80;;
19131;SDS011;9698;51.976;7.570;2023-05-28T12:22:01;8.67;;;4.03;;
19131;SDS011;9698;51.976;7.570;2023-05-28T12:24:31;7.40;;;3.80;;
19131;SDS011;9698;51.976;7.570;2023-05-28T12:26:59;8.00;;;3.60;;
19131;SDS011;9698;51.976;7.570;2023-05-28T12:29:27;7.87;;;3.73;;
19131;SDS011;9698;51.976;7.570;2023-05-28T12:31:57;6.40;;;3.80;;
19131;SDS011;9698;51.976;7.570;2023-05-28T12:34:26;5.43;;;3.90;;
19131;SDS011;9698;51.976;7.570;2023-05-28T12:36:54;8.57;;;3.97;;
19131;SDS011;9698;51.976;7.570;2023-05-28T12:39:22;8.63;;;3.97;;
19131;SDS011;9698;51.976;7.570;2023-05-28T12:41:50;8.27;;;3.80;;
19131;SDS011;9698;51.976;7.570;2023-05-28T12:44:18;11.20;;;4.37;;
19131;SDS011;9698;51.976;7.570;2023-05-28T12:46:46;8.73;;;4.13;;
19131;SDS011;9698;51.976;7.570;2023-05-28T12:49:15;8.07;;;4.13;;
19131;SDS011;9698;51.976;7.570;2023-05-28T12:51:44;8.33;;;4.13;;
19131;SDS011;9698;51.976;7.570;2023-05-28T12:54:11;9.00;;;4.67;;
19131;SDS011;9698;51.976;7.570;2023-05-28T12:59:27;6.30;;;4.00;;
19131;SDS011;9698;51.976;7.570;2023-05-28T13:01:56;6.60;;;4.43;;
19131;SDS011;9698;51.976;7.570;2023-05-28T13:04:24;5.80;;;4.00;;
19131;SDS011;9698;51.976;7.570;2023-05-28T13:06:53;7.67;;;3.97;;
19131;SDS011;9698;51.976;7.570;2023-05-28T13:09:21;6.23;;;3.87;;
19131;SDS011;9698;51.976;7.570;2023-05-28T13:11:49;7.10;;;4.23;;
19131;SDS011;9698;51.976;7.570;2023-05-28T13:14:17;6.57;;;4.10;;
19131;SDS011;9698;51.976;7.570;2023-05-28T13:16:45;7.57;;;3.90;;
19131;SDS011;9698;51.976;7.570;2023-05-28T13:19:13;10.07;;;4.40;;
19131;SDS011;9698;51.976;7.570;2023-05-28T13:21:41;6.37;;;3.33;;
19131;SDS011;9698;51.976;7.570;2023-05-28T13:24:08;7.17;;;3.93;;
19131;SDS011;9698;51.976;7.570;2023-05-28T13:26:37;5.37;;;3.67;;
19131;SDS011;9698;51.976;7.570;2023-05-28T13:29:05;6.37;;;3.60;;
19131;SDS011;9698;51.976;7.570;2023-05-28T13:31:33;6.33;;;4.00;;
19131;SDS011;9698;51.976;7.570;2023-05-28T13:34:02;8.33;;;3.90;;
19131;SDS011;9698;51.976;7.570;2023-05-28T13:36:30;7.27;;;3.83;;
19131;SDS011;9698;51.976;7.570;2023-05-28T13:38:58;6.57;;;3.80;;
19131;SDS011;9698;51.976;7.570;2023-05-28T13:41:26;6.07;;;3.77;;
19131;SDS011;9698;51.976;7.570;2023-05-28T13:43:54;5.47;;;4.20;;
19131;SDS011;9698;51.976;7.570;2023-05-28T13:46:22;6.43;;;3.67;;
19131;SDS011;9698;51.976;7.570;2023-05-28T13:48:51;6.77;;;3.83;;
19131;SDS011;9698;51.976;7.570;2023-05-28T13:51:19;7.67;;;4.03;;
19131;SDS011;9698;51.976;7.570;2023-05-28T13:56:34;12.50;;;5.30;;
19131;SDS011;9698;51.976;7.570;2023-05-28T13:59:02;9.70;;;5.23;;
19131;SDS011;9698;51.976;7.570;2023-05-28T14:01:30;6.33;;;5.00;;
19131;SDS011;9698;51.976;7.570;2023-05-28T14:03:58;5.63;;;3.87;;
19131;SDS011;9698;51.976;7.570;2023-05-28T14:06:26;8.67;;;5.40;;
19131;SDS011;9698;51.976;7.570;2023-05-28T14:08:54;9.03;;;4.53;;
19131;SDS011;9698;51.976;7.570;2023-05-28T14:11:22;8.63;;;4.97;;
19131;SDS011;9698;51.976;7.570;2023-05-28T14:13:54;8.43;;;4.83;;
19131;SDS011;9698;51.976;7.570;2023-05-28T14:16:22;6.83;;;4.70;;
19131;SDS011;9698;51.976;7.570;2023-05-28T14:18:50;8.27;;;3.80;;
19131;SDS011;9698;51.976;7.570;2023-05-28T14:21:18;8.83;;;4.00;;
19131;SDS011;9698;51.976;7.570;2023-05-28T14:23:46;7.57;;;4.33;;
19131;SDS011;9698;51.976;7.570;2023-05-28T14:26:14;8.43;;;3.80;;
19131;SDS011;9698;51.976;7.570;2023-05-28T14:28:42;6.30;;;3.93;;
19131;SDS011;9698;51.976;7.570;2023-05-28T14:31:10;7.37;;;3.87;;
19131;SDS011;9698;51.976;7.570;2023-05-28T14:36:24;6.70;;;3.40;;
19131;SDS011;9698;51.976;7.570;2023-05-28T14:38:52;7.03;;;3.57;;
19131;SDS011;9698;51.976;7.570;2023-05-28T14:41:20;8.60;;;3.80;;
19131;SDS011;9698;51.976;7.570;2023-05-28T14:43:48;9.50;;;3.73;;
19131;SDS011;9698;51.976;7.570;2023-05-28T14:46:16;5.90;;;3.67;;
19131;SDS011;9698;51.976;7.570;2023-05-28T14:48:44;5.93;;;4.10;;
19131;SDS011;9698;51.976;7.570;2023-05-28T14:51:12;9.13;;;3.73;;
19131;SDS011;9698;51.976;7.570;2023-05-28T14:53:40;5.70;;;3.83;;
19131;SDS011;9698;51.976;7.570;2023-05-28T14:56:08;7.93;;;4.07;;
19131;SDS011;9698;51.976;7.570;2023-05-28T14:58:36;7.17;;;4.00;;
19131;SDS011;9698;51.976;7.570;2023-05-28T15:01:05;6.23;;;3.87;;
19131;SDS011;9698;51.976;7.570;2023-05-28T15:03:33;6.80;;;4.43;;
19131;SDS011;9698;51.976;7.570;2023-05-28T15:06:01;5.83;;;3.73;;
19131;SDS011;9698;51.976;7.570;2023-05-28T15:08:29;8.67;;;3.77;;
19131;SDS011;9698;51.976;7.570;2023-05-28T15:10:59;6.90;;;3.97;;
19131;SDS011;9698;51.976;7.570;2023-05-28T15:13:28;7.43;;;4.03;;
19131;SDS011;9698;51.976;7.570;2023-05-28T15:15:56;7.67;;;3.73;;
19131;SDS011;9698;51.976;7.570;2023-05-28T15:18:24;9.73;;;4.47;;
19131;SDS011;9698;51.976;7.570;2023-05-28T15:20:52;6.90;;;3.90;;
19131;SDS011;9698;51.976;7.570;2023-05-28T15:23:21;6.63;;;3.83;;
19131;SDS011;9698;51.976;7.570;2023-05-28T15:25:49;6.53;;;3.57;;
19131;SDS011;9698;51.976;7.570;2023-05-28T15:28:18;5.93;;;3.93;;
19131;SDS011;9698;51.976;7.570;2023-05-28T15:30:48;7.67;;;4.07;;
19131;SDS011;9698;51.976;7.570;2023-05-28T15:33:16;6.90;;;3.50;;
19131;SDS011;9698;51.976;7.570;2023-05-28T15:38:31;7.93;;;3.53;;